createdAt,value
2018-12-02T00:01:54.151Z,95977.94
2018-12-02T00:04:22.795Z,95979.94
2018-12-02T00:06:51.455Z,95987.11
2018-12-02T00:09:24.357Z,95976.95
2018-12-02T00:11:54.081Z,95981.26
2018-12-02T00:14:23.154Z,95980.06
2018-12-02T00:16:52.184Z,95972.59
2018-12-02T00:19:21.970Z,95981.41
2018-12-02T00:21:50.884Z,95986.61
2018-12-02T00:24:22.587Z,95978.16
2018-12-02T00:27:06.648Z,95979.39
2018-12-02T00:29:36.450Z,95979.44
2018-12-02T00:32:07.325Z,95977.77
2018-12-02T00:34:37.195Z,95971.81
2018-12-02T00:37:06.266Z,95966.35
2018-12-02T00:39:35.004Z,95963.37
2018-12-02T00:42:03.645Z,95967.80
2018-12-02T00:44:32.323Z,95970.35
2018-12-02T00:47:00.978Z,95967.00
2018-12-02T00:49:29.586Z,95918.20
2018-12-02T00:51:58.313Z,95966.41
2018-12-02T00:54:26.921Z,95959.78
2018-12-02T00:56:55.554Z,95959.38
2018-12-02T00:59:24.153Z,95963.97
2018-12-02T01:01:59.040Z,95959.64
2018-12-02T01:04:27.660Z,95955.98
2018-12-02T01:06:56.349Z,95957.78
2018-12-02T01:09:25.010Z,95959.05
2018-12-02T01:11:53.665Z,95954.44
2018-12-02T01:14:22.334Z,95949.63
2018-12-02T01:16:50.943Z,95955.53
2018-12-02T01:19:19.586Z,95945.53
2018-12-02T01:21:48.288Z,95948.17
2018-12-02T01:24:16.972Z,95946.69
2018-12-02T01:26:45.530Z,95952.41
2018-12-02T01:29:14.159Z,95949.23
2018-12-02T01:31:42.785Z,95957.16
2018-12-02T01:34:11.453Z,95953.11
2018-12-02T01:36:40.168Z,95950.56
2018-12-02T01:39:09.234Z,95943.14
2018-12-02T01:41:37.881Z,95939.84
2018-12-02T01:44:06.583Z,95942.38
2018-12-02T01:46:35.262Z,95944.20
2018-12-02T01:49:04.068Z,95941.41
2018-12-02T01:51:32.743Z,95939.11
2018-12-02T01:54:01.375Z,95926.88
2018-12-02T01:56:29.944Z,95930.23
2018-12-02T01:58:58.539Z,95922.34
2018-12-02T02:01:27.284Z,95924.79
2018-12-02T02:03:55.972Z,95927.59
2018-12-02T02:06:24.654Z,95923.97
2018-12-02T02:08:53.301Z,95917.44
2018-12-02T02:11:21.998Z,95920.38
2018-12-02T02:13:50.617Z,95915.51
2018-12-02T02:16:19.241Z,95912.21
2018-12-02T02:18:47.913Z,95909.16
2018-12-02T02:21:16.613Z,95916.88
2018-12-02T02:23:45.182Z,95918.80
2018-12-02T02:26:13.834Z,95910.83
2018-12-02T02:28:42.449Z,95909.16
2018-12-02T02:31:11.065Z,95915.61
2018-12-02T02:33:39.672Z,95906.66
2018-12-02T02:36:08.654Z,95921.97
2018-12-02T02:38:37.300Z,95920.29
2018-12-02T02:41:06.030Z,95924.64
2018-12-02T02:43:34.712Z,95926.38
2018-12-02T02:46:03.394Z,95928.45
2018-12-02T02:48:32.074Z,95925.33
2018-12-02T02:51:00.758Z,95923.88
2018-12-02T02:53:29.447Z,95923.79
2018-12-02T02:55:58.102Z,95918.77
2018-12-02T02:58:26.745Z,95918.41
2018-12-02T03:00:55.444Z,95910.28
2018-12-02T03:03:24.053Z,95910.28
2018-12-02T03:05:52.715Z,95908.06
2018-12-02T03:08:21.374Z,95909.92
2018-12-02T03:10:50.030Z,95905.42
2018-12-02T03:13:18.743Z,95906.89
2018-12-02T03:15:47.364Z,95914.91
2018-12-02T03:18:15.984Z,95912.83
2018-12-02T03:20:44.681Z,95913.73
2018-12-02T03:23:13.591Z,95915.40
2018-12-02T03:25:42.242Z,95916.13
2018-12-02T03:28:10.852Z,95916.89
2018-12-02T03:30:39.510Z,95916.63
2018-12-02T03:33:08.492Z,95916.47
2018-12-02T03:35:37.125Z,95920.58
2018-12-02T03:38:05.961Z,95922.50
2018-12-02T03:40:34.698Z,95930.72
2018-12-02T03:43:03.350Z,95928.75
2018-12-02T03:45:31.961Z,95924.95
2018-12-02T03:48:00.633Z,95926.03
2018-12-02T03:50:29.253Z,95933.89
2018-12-02T03:52:57.893Z,95945.63
2018-12-02T03:55:26.537Z,95939.95
2018-12-02T03:57:55.149Z,95945.13
2018-12-02T04:00:25.071Z,95943.59
2018-12-02T04:02:54.472Z,95945.58
2018-12-02T04:05:24.205Z,95938.48
2018-12-02T04:07:53.101Z,95942.28
2018-12-02T04:10:22.019Z,95936.50
2018-12-02T04:12:51.380Z,95649.78
2018-12-02T04:15:21.172Z,95935.66
2018-12-02T04:17:49.855Z,95928.77
2018-12-02T04:20:19.117Z,95934.62
2018-12-02T04:22:48.537Z,95925.06
2018-12-02T04:25:20.885Z,95918.86
2018-12-02T04:27:49.528Z,95925.95
2018-12-02T04:30:20.729Z,95929.16
2018-12-02T04:32:50.297Z,95930.14
2018-12-02T04:35:19.863Z,95936.75
2018-12-02T04:37:48.454Z,95936.43
2018-12-02T04:40:17.097Z,95939.43
2018-12-02T04:42:45.730Z,95946.39
2018-12-02T04:45:15.976Z,95946.87
2018-12-02T04:47:44.768Z,95941.90
2018-12-02T04:50:19.513Z,95933.44
2018-12-02T04:52:48.142Z,95927.02
2018-12-02T04:55:16.852Z,95931.81
2018-12-02T04:57:45.543Z,95933.92
2018-12-02T05:00:16.927Z,95931.73
2018-12-02T05:02:46.754Z,95933.38
2018-12-02T05:05:18.473Z,95935.78
2018-12-02T05:07:47.104Z,95943.33
2018-12-02T05:10:17.644Z,95944.70
2018-12-02T05:12:46.356Z,95943.58
2018-12-02T05:15:17.786Z,95944.44
2018-12-02T05:17:46.430Z,95959.39
2018-12-02T05:20:17.625Z,95959.27
2018-12-02T05:22:46.288Z,95952.63
2018-12-02T05:25:17.973Z,95954.24
2018-12-02T05:27:44.646Z,95950.23
2018-12-02T05:30:22.576Z,95949.98
2018-12-02T05:32:52.958Z,95949.30
2018-12-02T05:35:21.714Z,95944.95
2018-12-02T05:37:50.381Z,95953.61
2018-12-02T05:40:23.743Z,95947.23
2018-12-02T05:42:53.336Z,95947.70
2018-12-02T05:45:22.414Z,95944.95
2018-12-02T05:47:51.065Z,95955.58
2018-12-02T05:50:21.766Z,95960.58
2018-12-02T05:52:51.528Z,95956.19
2018-12-02T05:55:22.441Z,95962.47
2018-12-02T05:57:51.229Z,95964.36
2018-12-02T06:00:21.647Z,95967.30
2018-12-02T06:02:50.318Z,95968.19
2018-12-02T06:05:19.007Z,95964.19
2018-12-02T06:07:47.670Z,95964.10
2018-12-02T06:10:19.020Z,95959.15
2018-12-02T06:12:47.787Z,95967.78
2018-12-02T06:15:17.333Z,95962.81
2018-12-02T06:17:45.936Z,95977.25
2018-12-02T06:20:22.277Z,95966.86
2018-12-02T06:22:51.794Z,95979.49
2018-12-02T06:25:20.503Z,95974.86
2018-12-02T06:27:49.243Z,95979.15
2018-12-02T06:30:20.707Z,95977.40
2018-12-02T06:32:51.556Z,95988.28
2018-12-02T06:35:20.193Z,95983.51
2018-12-02T06:37:48.841Z,95983.85
2018-12-02T06:40:20.546Z,95993.18
2018-12-02T06:42:49.341Z,95996.84
2018-12-02T06:45:18.387Z,95981.88
2018-12-02T06:47:47.106Z,95992.14
2018-12-02T06:50:22.577Z,95982.65
2018-12-02T06:52:51.439Z,95983.45
2018-12-02T06:55:39.201Z,95989.71
2018-12-02T06:59:20.349Z,95992.17
2018-12-02T07:01:58.482Z,95996.23
2018-12-02T07:04:37.393Z,95997.45
2018-12-02T07:07:06.629Z,95998.14
2018-12-02T07:09:36.003Z,96001.52
2018-12-02T07:12:05.485Z,96001.61
2018-12-02T07:14:34.171Z,96001.31
2018-12-02T07:17:02.842Z,95990.52
2018-12-02T07:19:37.842Z,95991.55
2018-12-02T07:22:16.180Z,95989.53
2018-12-02T07:24:50.090Z,95992.02
2018-12-02T07:27:19.174Z,95996.53
2018-12-02T07:29:47.805Z,95998.58
2018-12-02T07:32:16.481Z,95994.47
2018-12-02T07:34:45.109Z,95993.27
2018-12-02T07:37:17.199Z,95993.72
2018-12-02T07:39:57.025Z,96010.16
2018-12-02T07:42:25.692Z,96006.72
2018-12-02T07:44:54.327Z,96004.69
2018-12-02T07:47:22.944Z,96014.05
2018-12-02T07:49:51.641Z,96002.75
2018-12-02T07:52:20.335Z,96007.14
2018-12-02T07:54:48.972Z,96004.19
2018-12-02T07:57:17.676Z,96003.27
2018-12-02T07:59:46.356Z,96002.17
2018-12-02T08:02:15.019Z,96004.58
2018-12-02T08:04:43.661Z,96004.21
2018-12-02T08:07:12.330Z,96004.00
2018-12-02T08:09:40.962Z,96002.89
2018-12-02T08:12:09.602Z,96004.11
2018-12-02T08:14:38.245Z,96003.59
2018-12-02T08:17:07.044Z,96003.00
2018-12-02T08:19:35.709Z,96000.66
2018-12-02T08:22:04.448Z,96001.84
2018-12-02T08:24:33.143Z,96003.88
2018-12-02T08:27:01.797Z,96004.00
2018-12-02T08:29:30.475Z,95996.14
2018-12-02T08:31:59.182Z,95997.02
2018-12-02T08:34:27.817Z,95996.97
2018-12-02T08:36:56.859Z,95989.56
2018-12-02T08:39:25.513Z,95990.95
2018-12-02T08:41:54.176Z,95997.34
2018-12-02T08:44:22.796Z,95988.81
2018-12-02T08:46:51.417Z,95988.53
2018-12-02T08:49:20.184Z,95989.88
2018-12-02T08:51:48.872Z,95987.98
2018-12-02T08:54:17.662Z,95985.34
2018-12-02T08:56:46.295Z,95983.67
2018-12-02T08:59:14.945Z,95990.68
2018-12-02T09:01:43.618Z,95990.13
2018-12-02T09:04:12.268Z,95988.78
2018-12-02T09:06:40.933Z,95979.46
2018-12-02T09:09:10.699Z,95974.94
2018-12-02T09:11:39.300Z,95966.31
2018-12-02T09:14:07.941Z,95791.77
2018-12-02T09:16:36.662Z,95961.50
2018-12-02T09:19:05.910Z,95963.41
2018-12-02T09:21:34.556Z,95956.20
2018-12-02T09:24:03.205Z,95966.55
2018-12-02T09:26:31.907Z,95958.42
2018-12-02T09:29:00.576Z,95966.08
2018-12-02T09:31:29.184Z,95954.48
2018-12-02T09:33:57.869Z,95951.09
2018-12-02T09:36:26.508Z,95942.95
2018-12-02T09:38:55.295Z,95942.65
2018-12-02T09:41:23.964Z,95942.62
2018-12-02T09:43:52.691Z,95910.28
2018-12-02T09:46:21.284Z,95936.32
2018-12-02T09:48:49.966Z,95937.87
2018-12-02T09:51:18.625Z,95935.66
2018-12-02T09:53:47.277Z,95940.16
2018-12-02T09:56:15.948Z,95936.75
2018-12-02T09:58:44.562Z,95934.80
2018-12-02T10:01:13.528Z,95925.53
2018-12-02T10:03:42.230Z,95923.31
2018-12-02T10:06:10.922Z,95919.09
2018-12-02T10:08:39.549Z,95925.65
2018-12-02T10:11:08.332Z,95919.68
2018-12-02T10:13:36.920Z,95913.16
2018-12-02T10:16:05.637Z,95914.09
2018-12-02T10:18:35.213Z,95903.92
2018-12-02T10:21:04.021Z,95905.08
2018-12-02T10:23:32.766Z,95910.89
2018-12-02T10:26:01.402Z,95912.36
2018-12-02T10:28:30.123Z,95910.48
2018-12-02T10:30:58.742Z,95901.74
2018-12-02T10:33:27.462Z,95903.42
2018-12-02T10:35:56.190Z,95893.58
2018-12-02T10:38:27.585Z,95895.98
2018-12-02T10:40:56.751Z,95890.47
2018-12-02T10:43:25.427Z,95882.44
2018-12-02T10:45:54.152Z,95877.42
2018-12-02T10:48:40.666Z,95879.78
2018-12-02T10:51:10.313Z,95870.56
2018-12-02T10:53:39.008Z,95869.25
2018-12-02T10:56:07.863Z,95873.98
2018-12-02T10:58:36.687Z,95874.41
2018-12-02T11:01:11.788Z,95872.91
2018-12-02T11:03:40.458Z,95873.59
2018-12-02T11:06:09.059Z,95867.66
2018-12-02T11:08:37.691Z,95861.08
2018-12-02T11:11:06.772Z,95855.39
2018-12-02T11:13:35.459Z,95856.75
2018-12-02T11:16:04.109Z,95812.72
2018-12-02T11:18:32.758Z,95840.89
2018-12-02T11:21:01.438Z,95839.19
2018-12-02T11:23:30.072Z,95842.02
2018-12-02T11:25:58.674Z,95834.06
2018-12-02T11:28:27.337Z,95836.47
2018-12-02T11:30:56.029Z,95837.30
2018-12-02T11:33:24.667Z,95831.95
2018-12-02T11:35:53.303Z,95836.71
2018-12-02T11:38:21.952Z,95834.60
2018-12-02T11:40:50.568Z,95830.50
2018-12-02T11:43:19.210Z,95825.75
2018-12-02T11:45:47.923Z,95825.25
2018-12-02T11:48:16.590Z,95825.52
2018-12-02T11:50:45.217Z,95819.88
2018-12-02T11:53:13.847Z,95813.38
2018-12-02T11:55:42.457Z,95808.68
2018-12-02T11:58:11.038Z,95807.59
2018-12-02T12:00:40.827Z,95799.48
2018-12-02T12:03:09.447Z,95810.27
2018-12-02T12:05:38.789Z,95797.95
2018-12-02T12:08:09.957Z,95795.23
2018-12-02T12:10:38.641Z,95792.86
2018-12-02T12:13:07.312Z,95796.44
2018-12-02T12:15:36.678Z,95792.44
2018-12-02T12:18:05.871Z,95791.54
2018-12-02T12:20:43.732Z,95782.19
2018-12-02T12:23:14.231Z,95783.69
2018-12-02T12:25:42.845Z,95776.25
2018-12-02T12:28:11.497Z,95774.03
2018-12-02T12:30:40.129Z,95770.29
2018-12-02T12:33:10.038Z,95769.39
2018-12-02T12:35:43.690Z,95766.81
2018-12-02T12:38:12.311Z,95764.25
2018-12-02T12:40:41.276Z,95759.23
2018-12-02T12:43:12.804Z,95757.65
2018-12-02T12:45:41.479Z,95755.69
2018-12-02T12:48:10.104Z,95759.12
2018-12-02T12:50:38.793Z,95763.02
2018-12-02T12:53:07.535Z,95763.23
2018-12-02T12:55:36.235Z,95761.59
2018-12-02T12:58:05.220Z,95756.64
2018-12-02T13:00:33.890Z,95756.19
2018-12-02T13:03:02.537Z,95756.31
2018-12-02T13:05:31.376Z,95756.20
2018-12-02T13:08:00.020Z,95754.97
2018-12-02T13:10:28.628Z,95762.58
2018-12-02T13:12:57.303Z,95749.37
2018-12-02T13:15:26.019Z,95754.02
2018-12-02T13:17:58.367Z,95757.27
2018-12-02T13:20:32.329Z,95754.66
2018-12-02T13:23:01.002Z,95755.59
2018-12-02T13:25:29.594Z,95759.07
2018-12-02T13:27:58.179Z,95756.52
2018-12-02T13:30:26.842Z,95754.88
2018-12-02T13:32:55.860Z,95755.28
2018-12-02T13:35:25.080Z,95748.13
2018-12-02T13:37:53.789Z,95747.55
2018-12-02T13:40:23.321Z,95747.63
2018-12-02T13:43:00.315Z,95748.82
2018-12-02T13:45:30.160Z,95756.79
2018-12-02T13:47:59.123Z,95755.74
2018-12-02T13:50:27.838Z,95751.14
2018-12-02T13:52:57.240Z,95759.08
2018-12-02T13:55:27.989Z,95759.73
2018-12-02T13:57:56.747Z,95753.12
2018-12-02T14:00:26.321Z,95752.99
2018-12-02T14:03:08.139Z,95763.00
2018-12-02T14:05:38.790Z,95754.67
2018-12-02T14:08:07.493Z,95755.95
2018-12-02T14:10:36.303Z,95750.22
2018-12-02T14:13:08.198Z,95749.23
2018-12-02T14:15:47.439Z,95749.38
2018-12-02T14:18:41.459Z,95751.41
2018-12-02T14:21:10.905Z,95754.00
2018-12-02T14:23:41.120Z,95750.63
2018-12-02T14:26:13.244Z,95749.10
2018-12-02T14:28:49.738Z,95748.10
2018-12-02T14:31:19.355Z,95748.52
2018-12-02T14:33:48.255Z,95752.56
2018-12-02T14:36:16.917Z,95753.15
2018-12-02T14:38:45.763Z,95745.89
2018-12-02T14:41:14.381Z,95749.98
2018-12-02T14:43:43.013Z,95750.30
2018-12-02T14:46:11.662Z,95746.36
2018-12-02T14:48:40.343Z,95749.07
2018-12-02T14:51:08.990Z,95741.34
2018-12-02T14:53:37.675Z,95726.48
2018-12-02T14:56:06.687Z,95744.30
2018-12-02T14:58:35.301Z,95745.64
2018-12-02T15:01:04.277Z,95741.18
2018-12-02T15:03:32.896Z,95745.26
2018-12-02T15:06:01.478Z,95747.10
2018-12-02T15:08:30.207Z,95747.69
2018-12-02T15:10:58.867Z,95739.41
2018-12-02T15:13:27.514Z,95745.02
2018-12-02T15:15:56.238Z,95748.57
2018-12-02T15:18:25.063Z,95746.73
2018-12-02T15:20:53.731Z,95750.98
2018-12-02T15:23:22.340Z,95748.23
2018-12-02T15:25:51.112Z,95754.34
2018-12-02T15:28:19.711Z,95755.96
2018-12-02T15:30:48.349Z,95753.28
2018-12-02T15:33:17.106Z,95760.78
2018-12-02T15:35:45.751Z,95756.83
2018-12-02T15:38:14.537Z,95758.02
2018-12-02T15:40:43.279Z,95757.52
2018-12-02T15:43:11.945Z,95749.55
2018-12-02T15:45:40.608Z,95759.18
2018-12-02T15:48:09.613Z,95760.83
2018-12-02T15:50:38.251Z,95758.98
2018-12-02T15:53:07.007Z,95765.59
2018-12-02T15:55:36.265Z,95762.16
2018-12-02T15:58:08.025Z,95766.98
2018-12-02T16:00:38.133Z,95761.45
2018-12-02T16:03:07.354Z,95762.83
2018-12-02T16:05:35.992Z,95759.12
2018-12-02T16:08:04.657Z,95756.45
2018-12-02T16:10:33.589Z,95765.80
2018-12-02T16:13:02.245Z,95762.54
2018-12-02T16:15:32.494Z,95769.02
2018-12-02T16:18:02.023Z,95757.05
2018-12-02T16:20:53.002Z,95754.39
2018-12-02T16:23:23.838Z,95764.75
2018-12-02T16:25:52.662Z,95765.20
2018-12-02T16:28:21.819Z,95773.36
2018-12-02T16:30:52.855Z,95774.33
2018-12-02T16:33:21.580Z,95780.55
2018-12-02T16:35:50.535Z,95773.70
2018-12-02T16:38:19.283Z,95772.48
2018-12-02T16:40:47.956Z,95776.75
2018-12-02T16:43:16.904Z,95779.42
2018-12-02T16:45:45.421Z,95779.20
2018-12-02T16:48:14.082Z,95794.14
2018-12-02T16:50:46.124Z,95787.50
2018-12-02T16:53:23.088Z,95782.21
2018-12-02T16:55:59.026Z,95787.78
2018-12-02T16:58:34.224Z,95792.86
2018-12-02T17:01:09.871Z,95794.19
2018-12-02T17:03:46.817Z,95802.42
2018-12-02T17:06:15.619Z,95793.91
2018-12-02T17:08:44.272Z,95797.62
2018-12-02T17:11:13.348Z,95796.05
2018-12-02T17:13:41.973Z,95812.80
2018-12-02T17:16:10.663Z,95808.00
2018-12-02T17:18:39.400Z,95804.02
2018-12-02T17:21:08.079Z,95802.95
2018-12-02T17:23:36.758Z,95810.67
2018-12-02T17:26:05.646Z,95804.52
2018-12-02T17:28:34.275Z,95807.19
2018-12-02T17:31:14.730Z,95804.52
2018-12-02T17:33:43.397Z,95802.94
2018-12-02T17:36:12.068Z,95806.12
2018-12-02T17:38:40.751Z,95796.83
2018-12-02T17:41:11.011Z,95806.66
2018-12-02T17:43:39.728Z,95802.94
2018-12-02T17:46:09.144Z,95803.44
2018-12-02T17:48:37.884Z,95806.08
2018-12-02T17:51:07.735Z,95808.48
2018-12-02T17:53:37.471Z,95815.14
2018-12-02T17:56:06.911Z,95808.22
2018-12-02T17:58:35.543Z,95810.38
2018-12-02T18:01:04.393Z,95803.17
2018-12-02T18:03:34.393Z,95807.66
2018-12-02T18:06:03.024Z,95804.18
2018-12-02T18:08:31.647Z,95795.36
2018-12-02T18:11:00.277Z,95791.69
2018-12-02T18:13:28.955Z,95787.70
2018-12-02T18:15:57.574Z,95782.67
2018-12-02T18:18:26.973Z,95785.34
2018-12-02T18:20:55.929Z,95784.80
2018-12-02T18:23:24.578Z,95781.61
2018-12-02T18:25:53.244Z,95777.62
2018-12-02T18:28:22.117Z,95780.79
2018-12-02T18:30:51.030Z,95780.51
2018-12-02T18:33:20.673Z,95776.48
2018-12-02T18:35:59.237Z,95783.36
2018-12-02T18:38:29.372Z,95783.08
2018-12-02T18:41:16.138Z,95789.47
2018-12-02T18:43:46.628Z,95788.66
2018-12-02T18:46:16.185Z,95803.74
2018-12-02T18:48:44.965Z,95803.20
2018-12-02T18:51:14.111Z,95801.03
2018-12-02T18:53:42.930Z,95803.44
2018-12-02T18:56:16.379Z,95802.91
2018-12-02T18:58:40.358Z,95799.67
2018-12-02T19:01:09.320Z,95806.31
2018-12-02T19:03:37.976Z,95804.55
2018-12-02T19:06:07.299Z,95806.70
2018-12-02T19:08:35.969Z,95801.39
2018-12-02T19:11:04.764Z,95799.03
2018-12-02T19:13:33.655Z,95802.44
2018-12-02T19:16:02.346Z,95802.41
2018-12-02T19:18:31.120Z,95386.66
2018-12-02T19:21:01.826Z,95798.65
2018-12-02T19:23:32.664Z,95798.89
2018-12-02T19:26:01.501Z,95796.45
2018-12-02T19:28:30.249Z,95794.38
2018-12-02T19:30:59.527Z,95793.35
2018-12-02T19:33:28.229Z,95794.14
2018-12-02T19:36:01.216Z,95793.58
2018-12-02T19:38:29.856Z,95783.77
2018-12-02T19:40:58.517Z,95781.45
2018-12-02T19:43:27.165Z,95772.39
2018-12-02T19:45:55.826Z,95723.41
2018-12-02T19:48:24.459Z,95764.66
2018-12-02T19:50:53.353Z,95767.06
2018-12-02T19:53:31.865Z,95775.33
2018-12-02T19:56:01.437Z,95782.55
2018-12-02T19:58:30.084Z,95780.38
2018-12-02T20:00:58.705Z,95777.45
2018-12-02T20:03:27.417Z,95775.56
2018-12-02T20:05:56.075Z,95774.27
2018-12-02T20:08:27.258Z,95779.25
2018-12-02T20:10:56.042Z,95782.32
2018-12-02T20:13:24.895Z,95780.42
2018-12-02T20:15:59.090Z,95774.56
2018-12-02T20:18:36.499Z,95766.42
2018-12-02T20:21:05.838Z,95770.73
2018-12-02T20:23:39.760Z,95774.75
2018-12-02T20:26:08.990Z,95777.34
2018-12-02T20:28:40.654Z,95770.41
2018-12-02T20:31:13.808Z,95761.11
2018-12-02T20:33:42.417Z,95775.23
2018-12-02T20:36:12.134Z,95777.45
2018-12-02T20:38:40.807Z,95784.31
2018-12-02T20:41:09.588Z,95778.77
2018-12-02T20:43:38.248Z,95784.56
2018-12-02T20:46:06.958Z,95777.64
2018-12-02T20:48:35.940Z,95783.75
2018-12-02T20:51:04.679Z,95779.50
2018-12-02T20:53:33.394Z,95784.77
2018-12-02T20:56:02.120Z,95782.53
2018-12-02T20:58:31.101Z,95781.23
2018-12-02T21:00:59.792Z,95784.94
2018-12-02T21:03:30.358Z,95793.51
2018-12-02T21:08:41.806Z,95748.55
2018-12-02T21:11:10.543Z,95782.33
2018-12-02T21:13:39.327Z,95791.11
2018-12-02T21:16:08.035Z,95788.03
2018-12-02T21:18:36.763Z,95790.69
2018-12-02T21:21:05.575Z,95780.29
2018-12-02T21:23:34.323Z,95787.44
2018-12-02T21:26:03.518Z,95785.72
2018-12-02T21:28:32.187Z,95788.83
2018-12-02T21:31:01.170Z,95787.30
2018-12-02T21:33:29.855Z,95786.30
2018-12-02T21:35:58.493Z,95791.60
2018-12-02T21:38:27.330Z,95789.92
2018-12-02T21:40:56.099Z,95789.66
2018-12-02T21:43:24.729Z,95789.70
2018-12-02T21:45:53.474Z,95785.99
2018-12-02T21:48:22.477Z,95801.04
2018-12-02T21:50:53.039Z,95792.56
2018-12-02T21:53:21.697Z,95787.80
2018-12-02T21:55:50.276Z,95793.91
2018-12-02T21:58:18.921Z,95787.54
2018-12-02T22:00:52.788Z,95785.63
2018-12-02T22:03:21.458Z,95781.23
2018-12-02T22:05:50.573Z,95782.75
2018-12-02T22:08:19.634Z,95784.08
2018-12-02T22:10:48.709Z,95783.82
2018-12-02T22:13:17.351Z,95787.29
2018-12-02T22:15:46.002Z,95783.84
2018-12-02T22:18:14.654Z,95785.64
2018-12-02T22:20:43.260Z,95775.77
2018-12-02T22:23:11.929Z,95777.87
2018-12-02T22:25:40.613Z,95773.41
2018-12-02T22:28:09.824Z,95778.16
2018-12-02T22:30:38.535Z,95775.62
2018-12-02T22:33:07.619Z,95780.88
2018-12-02T22:35:36.669Z,95773.17
2018-12-02T22:38:05.462Z,95775.23
2018-12-02T22:40:34.316Z,95774.98
2018-12-02T22:43:02.955Z,95775.02
2018-12-02T22:45:31.605Z,95782.20
2018-12-02T22:48:00.271Z,95775.48
2018-12-02T22:50:29.667Z,95775.07
2018-12-02T22:52:59.442Z,95774.81
2018-12-02T22:55:28.223Z,95785.13
2018-12-02T22:57:56.941Z,95779.88
2018-12-02T23:00:33.045Z,95774.34
2018-12-02T23:03:02.774Z,95780.69
2018-12-02T23:05:31.528Z,95773.77
2018-12-02T23:08:00.301Z,95774.81
2018-12-02T23:10:29.076Z,95770.55
2018-12-02T23:12:57.786Z,95764.48
2018-12-02T23:15:26.526Z,95766.61
2018-12-02T23:17:55.267Z,95765.00
2018-12-02T23:20:24.429Z,95767.36
2018-12-02T23:22:53.126Z,95773.04
2018-12-02T23:25:21.803Z,95756.55
2018-12-02T23:27:50.501Z,95761.02
2018-12-02T23:30:21.987Z,95757.90
2018-12-02T23:32:51.056Z,95758.64
2018-12-02T23:35:19.801Z,95760.25
2018-12-02T23:37:48.493Z,95757.61
2018-12-02T23:40:18.168Z,95752.12
2018-12-02T23:42:46.899Z,95749.58
2018-12-02T23:45:16.315Z,95751.12
2018-12-02T23:47:45.049Z,95746.32
2018-12-02T23:50:15.926Z,95747.97
2018-12-02T23:52:44.592Z,95747.13
2018-12-02T23:55:15.925Z,95745.25
2018-12-02T23:57:44.674Z,95752.48
